sensor_id;sensor_type;location;lat;lon;timestamp;temperature;humidity
10263;DHT22;5177;50.068;8.156;2023-02-01T00:02:00;6.00;99.90
10263;DHT22;5177;50.068;8.156;2023-02-01T00:04:25;6.00;99.90
10263;DHT22;5177;50.068;8.156;2023-02-01T00:06:51;6.00;99.90
10263;DHT22;5177;50.068;8.156;2023-02-01T00:09:16;6.00;99.90
10263;DHT22;5177;50.068;8.156;2023-02-01T00:11:42;6.00;99.90
10263;DHT22;5177;50.068;8.156;2023-02-01T00:14:07;6.00;99.90
10263;DHT22;5177;50.068;8.156;2023-02-01T00:16:33;6.00;99.90
10263;DHT22;5177;50.068;8.156;2023-02-01T00:19:03;5.90;99.90
10263;DHT22;5177;50.068;8.156;2023-02-01T00:21:29;5.90;99.90
10263;DHT22;5177;50.068;8.156;2023-02-01T00:23:55;5.90;99.90
10263;DHT22;5177;50.068;8.156;2023-02-01T00:28:52;5.90;99.90
10263;DHT22;5177;50.068;8.156;2023-02-01T00:31:18;5.90;99.90
10263;DHT22;5177;50.068;8.156;2023-02-01T00:33:46;5.90;99.90
10263;DHT22;5177;50.068;8.156;2023-02-01T00:36:11;5.90;99.90
10263;DHT22;5177;50.068;8.156;2023-02-01T00:38:37;6.00;99.90
10263;DHT22;5177;50.068;8.156;2023-02-01T00:41:07;5.90;99.90
10263;DHT22;5177;50.068;8.156;2023-02-01T00:43:33;6.00;99.90
10263;DHT22;5177;50.068;8.156;2023-02-01T00:45:59;6.00;99.90
10263;DHT22;5177;50.068;8.156;2023-02-01T00:48:24;6.00;99.90
10263;DHT22;5177;50.068;8.156;2023-02-01T00:50:50;6.00;99.90
10263;DHT22;5177;50.068;8.156;2023-02-01T00:53:15;6.00;99.90
10263;DHT22;5177;50.068;8.156;2023-02-01T00:55:44;6.00;99.90
10263;DHT22;5177;50.068;8.156;2023-02-01T00:58:09;6.00;99.90
10263;DHT22;5177;50.068;8.156;2023-02-01T01:00:35;6.00;99.90
10263;DHT22;5177;50.068;8.156;2023-02-01T01:03:00;6.10;99.90
10263;DHT22;5177;50.068;8.156;2023-02-01T01:05:26;6.00;99.90
10263;DHT22;5177;50.068;8.156;2023-02-01T01:07:53;6.10;99.90
10263;DHT22;5177;50.068;8.156;2023-02-01T01:10:18;6.10;99.90
10263;DHT22;5177;50.068;8.156;2023-02-01T01:12:44;6.10;99.90
10263;DHT22;5177;50.068;8.156;2023-02-01T01:15:09;6.10;99.90
10263;DHT22;5177;50.068;8.156;2023-02-01T01:17:35;6.10;99.90
10263;DHT22;5177;50.068;8.156;2023-02-01T01:20:00;6.10;99.90
10263;DHT22;5177;50.068;8.156;2023-02-01T01:22:26;6.10;99.90
10263;DHT22;5177;50.068;8.156;2023-02-01T01:24:51;6.10;99.90
10263;DHT22;5177;50.068;8.156;2023-02-01T01:27:17;6.20;99.90
10263;DHT22;5177;50.068;8.156;2023-02-01T01:29:48;6.10;99.90
10263;DHT22;5177;50.068;8.156;2023-02-01T01:32:13;6.10;99.90
10263;DHT22;5177;50.068;8.156;2023-02-01T01:34:39;6.20;99.90
10263;DHT22;5177;50.068;8.156;2023-02-01T01:37:04;6.10;99.90
10263;DHT22;5177;50.068;8.156;2023-02-01T01:39:30;6.10;99.90
10263;DHT22;5177;50.068;8.156;2023-02-01T01:41:55;6.10;99.90
10263;DHT22;5177;50.068;8.156;2023-02-01T01:47:05;6.10;99.90
10263;DHT22;5177;50.068;8.156;2023-02-01T01:49:31;6.00;99.90
10263;DHT22;5177;50.068;8.156;2023-02-01T01:51:57;6.10;99.90
10263;DHT22;5177;50.068;8.156;2023-02-01T01:54:27;5.90;99.90
10263;DHT22;5177;50.068;8.156;2023-02-01T01:56:55;6.00;99.90
10263;DHT22;5177;50.068;8.156;2023-02-01T01:59:22;6.00;99.90
10263;DHT22;5177;50.068;8.156;2023-02-01T02:01:49;6.00;99.90
10263;DHT22;5177;50.068;8.156;2023-02-01T02:04:15;6.00;99.90
10263;DHT22;5177;50.068;8.156;2023-02-01T02:06:43;5.90;99.90
10263;DHT22;5177;50.068;8.156;2023-02-01T02:09:13;5.90;99.90
10263;DHT22;5177;50.068;8.156;2023-02-01T02:11:38;5.90;99.90
10263;DHT22;5177;50.068;8.156;2023-02-01T02:14:04;5.90;99.90
10263;DHT22;5177;50.068;8.156;2023-02-01T02:21:52;5.90;99.90
10263;DHT22;5177;50.068;8.156;2023-02-01T02:27:17;5.90;99.90
10263;DHT22;5177;50.068;8.156;2023-02-01T02:32:23;5.90;99.90
10263;DHT22;5177;50.068;8.156;2023-02-01T02:35:02;5.90;99.90
10263;DHT22;5177;50.068;8.156;2023-02-01T02:37:38;5.90;99.90
10263;DHT22;5177;50.068;8.156;2023-02-01T02:40:15;5.90;99.90
10263;DHT22;5177;50.068;8.156;2023-02-01T02:42:45;5.90;99.90
10263;DHT22;5177;50.068;8.156;2023-02-01T02:45:55;5.90;99.90
10263;DHT22;5177;50.068;8.156;2023-02-01T02:51:07;5.90;99.90
10263;DHT22;5177;50.068;8.156;2023-02-01T02:56:38;5.90;99.90
10263;DHT22;5177;50.068;8.156;2023-02-01T02:59:24;5.90;99.90
10263;DHT22;5177;50.068;8.156;2023-02-01T03:02:09;5.90;99.90
10263;DHT22;5177;50.068;8.156;2023-02-01T03:04:54;5.90;99.90
10263;DHT22;5177;50.068;8.156;2023-02-01T03:10:07;5.90;99.90
10263;DHT22;5177;50.068;8.156;2023-02-01T03:12:36;5.90;99.90
10263;DHT22;5177;50.068;8.156;2023-02-01T03:15:34;5.90;99.90
10263;DHT22;5177;50.068;8.156;2023-02-01T03:18:01;5.90;99.90
10263;DHT22;5177;50.068;8.156;2023-02-01T03:20:29;5.90;99.90
10263;DHT22;5177;50.068;8.156;2023-02-01T03:22:55;6.00;99.90
10263;DHT22;5177;50.068;8.156;2023-02-01T03:25:24;6.00;99.90
10263;DHT22;5177;50.068;8.156;2023-02-01T03:27:54;6.00;99.90
10263;DHT22;5177;50.068;8.156;2023-02-01T03:30:22;6.00;99.90
10263;DHT22;5177;50.068;8.156;2023-02-01T03:32:50;6.00;99.90
10263;DHT22;5177;50.068;8.156;2023-02-01T03:35:29;6.00;99.90
10263;DHT22;5177;50.068;8.156;2023-02-01T03:40:56;6.00;99.90
10263;DHT22;5177;50.068;8.156;2023-02-01T03:43:23;6.00;99.90
10263;DHT22;5177;50.068;8.156;2023-02-01T03:45:52;6.00;99.90
10263;DHT22;5177;50.068;8.156;2023-02-01T03:48:19;6.00;99.90
10263;DHT22;5177;50.068;8.156;2023-02-01T03:50:47;6.00;99.90
10263;DHT22;5177;50.068;8.156;2023-02-01T03:53:14;6.00;99.90
10263;DHT22;5177;50.068;8.156;2023-02-01T03:55:41;6.00;99.90
10263;DHT22;5177;50.068;8.156;2023-02-01T03:58:17;6.00;99.90
10263;DHT22;5177;50.068;8.156;2023-02-01T04:00:45;6.00;99.90
10263;DHT22;5177;50.068;8.156;2023-02-01T04:03:11;6.00;99.90
10263;DHT22;5177;50.068;8.156;2023-02-01T04:05:36;6.00;99.90
10263;DHT22;5177;50.068;8.156;2023-02-01T04:08:02;6.00;99.90
10263;DHT22;5177;50.068;8.156;2023-02-01T04:10:28;6.00;99.90
10263;DHT22;5177;50.068;8.156;2023-02-01T04:12:53;6.00;99.90
10263;DHT22;5177;50.068;8.156;2023-02-01T04:15:19;6.00;99.90
10263;DHT22;5177;50.068;8.156;2023-02-01T04:17:44;6.00;99.90
10263;DHT22;5177;50.068;8.156;2023-02-01T04:20:10;6.00;99.90
10263;DHT22;5177;50.068;8.156;2023-02-01T04:22:35;6.00;99.90
10263;DHT22;5177;50.068;8.156;2023-02-01T04:25:01;6.00;99.90
10263;DHT22;5177;50.068;8.156;2023-02-01T04:27:26;6.00;99.90
10263;DHT22;5177;50.068;8.156;2023-02-01T04:29:52;6.10;99.90
10263;DHT22;5177;50.068;8.156;2023-02-01T04:32:18;6.10;99.90
10263;DHT22;5177;50.068;8.156;2023-02-01T04:34:45;6.10;99.90
10263;DHT22;5177;50.068;8.156;2023-02-01T04:37:11;6.10;99.90
10263;DHT22;5177;50.068;8.156;2023-02-01T04:39:36;6.00;99.90
10263;DHT22;5177;50.068;8.156;2023-02-01T04:42:02;6.00;99.90
10263;DHT22;5177;50.068;8.156;2023-02-01T04:44:28;6.00;99.90
10263;DHT22;5177;50.068;8.156;2023-02-01T04:46:53;6.00;99.90
10263;DHT22;5177;50.068;8.156;2023-02-01T04:49:18;6.00;99.90
10263;DHT22;5177;50.068;8.156;2023-02-01T04:51:46;6.10;99.90
10263;DHT22;5177;50.068;8.156;2023-02-01T04:54:12;6.10;99.90
10263;DHT22;5177;50.068;8.156;2023-02-01T04:56:37;6.10;99.90
10263;DHT22;5177;50.068;8.156;2023-02-01T04:59:03;6.10;99.90
10263;DHT22;5177;50.068;8.156;2023-02-01T05:01:29;6.10;99.90
10263;DHT22;5177;50.068;8.156;2023-02-01T05:03:54;6.20;99.90
10263;DHT22;5177;50.068;8.156;2023-02-01T05:06:20;6.20;99.90
10263;DHT22;5177;50.068;8.156;2023-02-01T05:08:46;6.20;99.90
10263;DHT22;5177;50.068;8.156;2023-02-01T05:11:11;6.20;99.90
10263;DHT22;5177;50.068;8.156;2023-02-01T05:13:57;6.20;99.90
10263;DHT22;5177;50.068;8.156;2023-02-01T05:16:23;6.20;99.90
10263;DHT22;5177;50.068;8.156;2023-02-01T05:18:48;6.20;99.90
10263;DHT22;5177;50.068;8.156;2023-02-01T05:21:14;6.20;99.90
10263;DHT22;5177;50.068;8.156;2023-02-01T05:23:39;6.20;99.90
10263;DHT22;5177;50.068;8.156;2023-02-01T05:26:23;6.30;99.90
10263;DHT22;5177;50.068;8.156;2023-02-01T05:28:49;6.30;99.90
10263;DHT22;5177;50.068;8.156;2023-02-01T05:31:14;6.30;99.90
10263;DHT22;5177;50.068;8.156;2023-02-01T05:33:40;6.40;99.90
10263;DHT22;5177;50.068;8.156;2023-02-01T05:36:05;6.40;99.90
10263;DHT22;5177;50.068;8.156;2023-02-01T05:38:31;6.40;99.90
10263;DHT22;5177;50.068;8.156;2023-02-01T05:40:57;6.40;99.90
10263;DHT22;5177;50.068;8.156;2023-02-01T05:43:22;6.40;99.90
10263;DHT22;5177;50.068;8.156;2023-02-01T05:45:48;6.40;99.90
10263;DHT22;5177;50.068;8.156;2023-02-01T05:48:13;6.40;99.90
10263;DHT22;5177;50.068;8.156;2023-02-01T05:50:39;6.50;99.90
10263;DHT22;5177;50.068;8.156;2023-02-01T05:53:04;6.40;99.90
10263;DHT22;5177;50.068;8.156;2023-02-01T05:55:30;6.40;99.90
10263;DHT22;5177;50.068;8.156;2023-02-01T05:57:55;6.40;99.90
10263;DHT22;5177;50.068;8.156;2023-02-01T06:00:21;6.40;99.90
10263;DHT22;5177;50.068;8.156;2023-02-01T06:02:47;6.40;99.90
10263;DHT22;5177;50.068;8.156;2023-02-01T06:05:15;6.40;99.90
10263;DHT22;5177;50.068;8.156;2023-02-01T06:07:40;6.40;99.90
10263;DHT22;5177;50.068;8.156;2023-02-01T06:10:06;6.40;99.90
10263;DHT22;5177;50.068;8.156;2023-02-01T06:12:32;6.40;99.90
10263;DHT22;5177;50.068;8.156;2023-02-01T06:14:57;6.30;99.90
10263;DHT22;5177;50.068;8.156;2023-02-01T06:17:24;6.30;99.90
10263;DHT22;5177;50.068;8.156;2023-02-01T06:19:49;6.30;99.90
10263;DHT22;5177;50.068;8.156;2023-02-01T06:22:15;6.30;99.90
10263;DHT22;5177;50.068;8.156;2023-02-01T06:24:40;6.30;99.90
10263;DHT22;5177;50.068;8.156;2023-02-01T06:27:06;6.30;99.90
10263;DHT22;5177;50.068;8.156;2023-02-01T06:29:32;6.30;99.90
10263;DHT22;5177;50.068;8.156;2023-02-01T06:31:58;6.30;99.90
10263;DHT22;5177;50.068;8.156;2023-02-01T06:34:23;6.30;99.90
10263;DHT22;5177;50.068;8.156;2023-02-01T06:36:51;6.10;99.90
10263;DHT22;5177;50.068;8.156;2023-02-01T06:39:16;6.10;99.90
10263;DHT22;5177;50.068;8.156;2023-02-01T06:41:42;6.10;99.90
10263;DHT22;5177;50.068;8.156;2023-02-01T06:44:08;6.10;99.90
10263;DHT22;5177;50.068;8.156;2023-02-01T06:46:33;6.10;99.90
10263;DHT22;5177;50.068;8.156;2023-02-01T06:48:59;6.00;99.90
10263;DHT22;5177;50.068;8.156;2023-02-01T06:51:25;6.00;99.90
10263;DHT22;5177;50.068;8.156;2023-02-01T06:53:51;6.00;99.90
10263;DHT22;5177;50.068;8.156;2023-02-01T06:56:17;6.00;99.90
10263;DHT22;5177;50.068;8.156;2023-02-01T06:58:43;6.00;99.90
10263;DHT22;5177;50.068;8.156;2023-02-01T07:01:09;5.90;99.90
10263;DHT22;5177;50.068;8.156;2023-02-01T07:03:35;5.90;99.90
10263;DHT22;5177;50.068;8.156;2023-02-01T07:06:01;5.90;99.90
10263;DHT22;5177;50.068;8.156;2023-02-01T07:08:27;5.90;99.90
10263;DHT22;5177;50.068;8.156;2023-02-01T07:10:52;5.90;99.90
10263;DHT22;5177;50.068;8.156;2023-02-01T07:13:18;5.90;99.90
10263;DHT22;5177;50.068;8.156;2023-02-01T07:15:43;5.90;99.90
10263;DHT22;5177;50.068;8.156;2023-02-01T07:18:09;5.80;99.90
10263;DHT22;5177;50.068;8.156;2023-02-01T07:20:34;5.80;99.90
10263;DHT22;5177;50.068;8.156;2023-02-01T07:23:00;5.80;99.90
10263;DHT22;5177;50.068;8.156;2023-02-01T07:25:25;5.80;99.90
10263;DHT22;5177;50.068;8.156;2023-02-01T07:27:51;5.80;99.90
10263;DHT22;5177;50.068;8.156;2023-02-01T07:30:17;5.80;99.90
10263;DHT22;5177;50.068;8.156;2023-02-01T07:32:42;5.80;99.90
10263;DHT22;5177;50.068;8.156;2023-02-01T07:35:08;5.80;99.90
10263;DHT22;5177;50.068;8.156;2023-02-01T07:37:33;5.80;99.90
10263;DHT22;5177;50.068;8.156;2023-02-01T07:39:59;5.80;99.90
10263;DHT22;5177;50.068;8.156;2023-02-01T07:42:24;5.90;99.90
10263;DHT22;5177;50.068;8.156;2023-02-01T07:44:49;5.90;99.90
10263;DHT22;5177;50.068;8.156;2023-02-01T07:47:15;6.00;99.90
10263;DHT22;5177;50.068;8.156;2023-02-01T07:49:40;6.00;99.90
10263;DHT22;5177;50.068;8.156;2023-02-01T07:52:06;6.00;99.90
10263;DHT22;5177;50.068;8.156;2023-02-01T07:54:31;6.10;99.90
10263;DHT22;5177;50.068;8.156;2023-02-01T07:56:57;6.10;99.90
10263;DHT22;5177;50.068;8.156;2023-02-01T07:59:22;6.20;99.90
10263;DHT22;5177;50.068;8.156;2023-02-01T08:01:48;6.30;99.90
10263;DHT22;5177;50.068;8.156;2023-02-01T08:04:13;6.40;99.90
10263;DHT22;5177;50.068;8.156;2023-02-01T08:06:39;6.50;99.90
10263;DHT22;5177;50.068;8.156;2023-02-01T08:09:05;6.60;99.90
10263;DHT22;5177;50.068;8.156;2023-02-01T08:11:31;6.60;99.90
10263;DHT22;5177;50.068;8.156;2023-02-01T08:13:57;6.80;99.90
10263;DHT22;5177;50.068;8.156;2023-02-01T08:16:23;6.80;99.90
10263;DHT22;5177;50.068;8.156;2023-02-01T08:18:48;6.90;99.90
10263;DHT22;5177;50.068;8.156;2023-02-01T08:21:18;6.90;99.90
10263;DHT22;5177;50.068;8.156;2023-02-01T08:23:45;7.00;99.90
10263;DHT22;5177;50.068;8.156;2023-02-01T08:26:15;6.90;99.90
10263;DHT22;5177;50.068;8.156;2023-02-01T08:28:42;6.90;99.90
10263;DHT22;5177;50.068;8.156;2023-02-01T08:31:08;7.00;99.90
10263;DHT22;5177;50.068;8.156;2023-02-01T08:33:34;7.10;99.90
10263;DHT22;5177;50.068;8.156;2023-02-01T08:36:01;7.20;99.90
10263;DHT22;5177;50.068;8.156;2023-02-01T08:38:27;7.30;99.90
10263;DHT22;5177;50.068;8.156;2023-02-01T08:40:53;7.50;99.90
10263;DHT22;5177;50.068;8.156;2023-02-01T08:43:18;7.70;99.90
10263;DHT22;5177;50.068;8.156;2023-02-01T08:45:44;7.80;99.90
10263;DHT22;5177;50.068;8.156;2023-02-01T08:48:09;7.80;99.90
10263;DHT22;5177;50.068;8.156;2023-02-01T08:50:35;7.70;99.90
10263;DHT22;5177;50.068;8.156;2023-02-01T08:53:00;7.80;99.90
10263;DHT22;5177;50.068;8.156;2023-02-01T08:55:26;7.90;99.90
10263;DHT22;5177;50.068;8.156;2023-02-01T08:57:51;7.90;99.90
10263;DHT22;5177;50.068;8.156;2023-02-01T09:00:17;8.00;99.90
10263;DHT22;5177;50.068;8.156;2023-02-01T09:02:43;8.10;99.90
10263;DHT22;5177;50.068;8.156;2023-02-01T09:05:08;8.20;99.90
10263;DHT22;5177;50.068;8.156;2023-02-01T09:07:34;8.40;99.90
10263;DHT22;5177;50.068;8.156;2023-02-01T09:10:00;8.40;99.90
10263;DHT22;5177;50.068;8.156;2023-02-01T09:12:29;8.40;99.90
10263;DHT22;5177;50.068;8.156;2023-02-01T09:14:57;8.40;99.90
10263;DHT22;5177;50.068;8.156;2023-02-01T09:17:25;8.60;99.90
10263;DHT22;5177;50.068;8.156;2023-02-01T09:19:50;8.90;99.90
10263;DHT22;5177;50.068;8.156;2023-02-01T09:22:16;8.80;99.90
10263;DHT22;5177;50.068;8.156;2023-02-01T09:24:42;8.80;99.90
10263;DHT22;5177;50.068;8.156;2023-02-01T09:27:07;8.70;99.90
10263;DHT22;5177;50.068;8.156;2023-02-01T09:29:33;8.60;99.90
10263;DHT22;5177;50.068;8.156;2023-02-01T09:31:58;8.40;99.90
10263;DHT22;5177;50.068;8.156;2023-02-01T09:34:24;8.30;99.90
10263;DHT22;5177;50.068;8.156;2023-02-01T09:36:50;8.40;99.90
10263;DHT22;5177;50.068;8.156;2023-02-01T09:39:15;8.50;99.90
10263;DHT22;5177;50.068;8.156;2023-02-01T09:47:19;8.70;99.90
10263;DHT22;5177;50.068;8.156;2023-02-01T09:50:08;8.70;99.90
10263;DHT22;5177;50.068;8.156;2023-02-01T09:52:40;8.50;99.90
10263;DHT22;5177;50.068;8.156;2023-02-01T09:55:24;8.40;99.90
10263;DHT22;5177;50.068;8.156;2023-02-01T09:58:02;8.40;99.90
10263;DHT22;5177;50.068;8.156;2023-02-01T10:00:30;8.30;99.90
10263;DHT22;5177;50.068;8.156;2023-02-01T10:02:58;8.20;99.90
10263;DHT22;5177;50.068;8.156;2023-02-01T10:11:16;8.50;99.90
10263;DHT22;5177;50.068;8.156;2023-02-01T10:13:52;8.60;99.90
10263;DHT22;5177;50.068;8.156;2023-02-01T10:16:37;8.80;99.90
10263;DHT22;5177;50.068;8.156;2023-02-01T10:19:10;8.80;99.90
10263;DHT22;5177;50.068;8.156;2023-02-01T10:21:46;9.00;99.90
10263;DHT22;5177;50.068;8.156;2023-02-01T10:27:01;9.00;99.90
10263;DHT22;5177;50.068;8.156;2023-02-01T10:29:29;8.90;99.90
10263;DHT22;5177;50.068;8.156;2023-02-01T10:31:57;8.70;99.90
10263;DHT22;5177;50.068;8.156;2023-02-01T10:34:25;8.60;99.90
10263;DHT22;5177;50.068;8.156;2023-02-01T10:37:52;8.40;99.90
10263;DHT22;5177;50.068;8.156;2023-02-01T10:39:47;8.40;99.90
10263;DHT22;5177;50.068;8.156;2023-02-01T10:42:14;8.50;99.90
10263;DHT22;5177;50.068;8.156;2023-02-01T10:44:40;8.50;99.90
10263;DHT22;5177;50.068;8.156;2023-02-01T10:47:11;8.50;99.90
10263;DHT22;5177;50.068;8.156;2023-02-01T10:49:56;8.50;99.90
10263;DHT22;5177;50.068;8.156;2023-02-01T10:54:49;8.50;99.90
10263;DHT22;5177;50.068;8.156;2023-02-01T10:57:22;8.50;99.90
10263;DHT22;5177;50.068;8.156;2023-02-01T10:59:50;8.40;99.90
10263;DHT22;5177;50.068;8.156;2023-02-01T11:02:31;8.40;99.90
10263;DHT22;5177;50.068;8.156;2023-02-01T11:04:58;8.40;99.90
10263;DHT22;5177;50.068;8.156;2023-02-01T11:07:24;8.40;99.90
10263;DHT22;5177;50.068;8.156;2023-02-01T11:09:51;8.40;99.90
10263;DHT22;5177;50.068;8.156;2023-02-01T11:14:48;8.30;99.90
10263;DHT22;5177;50.068;8.156;2023-02-01T11:19:43;8.00;99.90
10263;DHT22;5177;50.068;8.156;2023-02-01T11:22:09;8.10;99.90
10263;DHT22;5177;50.068;8.156;2023-02-01T11:24:36;8.00;99.90
10263;DHT22;5177;50.068;8.156;2023-02-01T11:27:04;8.00;99.90
10263;DHT22;5177;50.068;8.156;2023-02-01T11:29:39;8.10;99.90
10263;DHT22;5177;50.068;8.156;2023-02-01T11:32:06;8.10;99.90
10263;DHT22;5177;50.068;8.156;2023-02-01T11:34:37;8.20;99.90
10263;DHT22;5177;50.068;8.156;2023-02-01T11:37:03;8.20;99.90
10263;DHT22;5177;50.068;8.156;2023-02-01T11:39:35;8.40;99.90
10263;DHT22;5177;50.068;8.156;2023-02-01T11:42:02;8.40;99.90
10263;DHT22;5177;50.068;8.156;2023-02-01T11:44:33;8.30;99.90
10263;DHT22;5177;50.068;8.156;2023-02-01T11:49:43;8.30;99.90
10263;DHT22;5177;50.068;8.156;2023-02-01T11:54:56;8.40;99.90
10263;DHT22;5177;50.068;8.156;2023-02-01T12:02:49;8.60;99.90
10263;DHT22;5177;50.068;8.156;2023-02-01T12:08:04;8.40;99.90
10263;DHT22;5177;50.068;8.156;2023-02-01T12:15:54;8.30;99.90
10263;DHT22;5177;50.068;8.156;2023-02-01T12:26:06;8.50;99.90
10263;DHT22;5177;50.068;8.156;2023-02-01T12:31:21;8.50;99.90
10263;DHT22;5177;50.068;8.156;2023-02-01T12:34:03;8.60;99.90
10263;DHT22;5177;50.068;8.156;2023-02-01T12:41:41;8.30;99.90
10263;DHT22;5177;50.068;8.156;2023-02-01T12:44:12;8.30;99.90
10263;DHT22;5177;50.068;8.156;2023-02-01T12:49:33;8.10;99.90
10263;DHT22;5177;50.068;8.156;2023-02-01T12:52:01;8.10;99.90
10263;DHT22;5177;50.068;8.156;2023-02-01T12:54:42;8.10;99.90
10263;DHT22;5177;50.068;8.156;2023-02-01T12:57:11;8.10;99.90
10263;DHT22;5177;50.068;8.156;2023-02-01T12:59:38;8.20;99.90
10263;DHT22;5177;50.068;8.156;2023-02-01T13:02:11;8.10;99.90
10263;DHT22;5177;50.068;8.156;2023-02-01T13:04:42;8.00;99.90
10263;DHT22;5177;50.068;8.156;2023-02-01T13:07:22;8.00;99.90
10263;DHT22;5177;50.068;8.156;2023-02-01T13:09:57;7.90;99.90
10263;DHT22;5177;50.068;8.156;2023-02-01T13:12:37;7.90;99.90
10263;DHT22;5177;50.068;8.156;2023-02-01T13:15:13;7.90;99.90
10263;DHT22;5177;50.068;8.156;2023-02-01T13:17:39;7.90;99.90
10263;DHT22;5177;50.068;8.156;2023-02-01T13:20:07;7.90;99.90
10263;DHT22;5177;50.068;8.156;2023-02-01T13:22:40;8.00;99.90
10263;DHT22;5177;50.068;8.156;2023-02-01T13:27:43;8.00;99.90
10263;DHT22;5177;50.068;8.156;2023-02-01T13:32:45;8.00;99.90
10263;DHT22;5177;50.068;8.156;2023-02-01T13:35:37;8.00;99.90
10263;DHT22;5177;50.068;8.156;2023-02-01T13:41:07;8.00;99.90
10263;DHT22;5177;50.068;8.156;2023-02-01T13:43:34;8.00;99.90
10263;DHT22;5177;50.068;8.156;2023-02-01T13:46:07;8.10;99.90
10263;DHT22;5177;50.068;8.156;2023-02-01T13:48:35;8.10;99.90
10263;DHT22;5177;50.068;8.156;2023-02-01T13:51:03;8.10;99.90
10263;DHT22;5177;50.068;8.156;2023-02-01T13:53:34;8.10;99.90
10263;DHT22;5177;50.068;8.156;2023-02-01T13:56:18;8.10;99.90
10263;DHT22;5177;50.068;8.156;2023-02-01T13:58:44;8.10;99.90
10263;DHT22;5177;50.068;8.156;2023-02-01T14:03:51;8.10;99.90
10263;DHT22;5177;50.068;8.156;2023-02-01T14:11:37;8.10;99.90
10263;DHT22;5177;50.068;8.156;2023-02-01T14:14:45;8.00;99.90
10263;DHT22;5177;50.068;8.156;2023-02-01T14:19:29;8.00;99.90
10263;DHT22;5177;50.068;8.156;2023-02-01T14:22:00;8.10;99.90
10263;DHT22;5177;50.068;8.156;2023-02-01T14:24:33;8.20;99.90
10263;DHT22;5177;50.068;8.156;2023-02-01T14:27:00;8.10;99.90
10263;DHT22;5177;50.068;8.156;2023-02-01T14:32:03;8.20;99.90
10263;DHT22;5177;50.068;8.156;2023-02-01T14:44:43;8.30;99.90
10263;DHT22;5177;50.068;8.156;2023-02-01T14:47:10;8.20;99.90
10263;DHT22;5177;50.068;8.156;2023-02-01T14:49:58;8.20;99.90
10263;DHT22;5177;50.068;8.156;2023-02-01T14:52:29;8.30;99.90
10263;DHT22;5177;50.068;8.156;2023-02-01T14:54:57;8.30;99.90
10263;DHT22;5177;50.068;8.156;2023-02-01T14:57:27;8.30;99.90
10263;DHT22;5177;50.068;8.156;2023-02-01T14:59:55;8.30;99.90
10263;DHT22;5177;50.068;8.156;2023-02-01T15:02:24;8.30;99.90
10263;DHT22;5177;50.068;8.156;2023-02-01T15:04:54;8.30;99.90
10263;DHT22;5177;50.068;8.156;2023-02-01T15:07:21;8.20;99.90
10263;DHT22;5177;50.068;8.156;2023-02-01T15:09:47;8.20;99.90
10263;DHT22;5177;50.068;8.156;2023-02-01T15:12:18;8.20;99.90
10263;DHT22;5177;50.068;8.156;2023-02-01T15:14:47;8.20;99.90
10263;DHT22;5177;50.068;8.156;2023-02-01T15:17:26;8.20;99.90
10263;DHT22;5177;50.068;8.156;2023-02-01T15:19:52;8.20;99.90
10263;DHT22;5177;50.068;8.156;2023-02-01T15:22:18;8.20;99.90
10263;DHT22;5177;50.068;8.156;2023-02-01T15:24:51;8.30;99.90
10263;DHT22;5177;50.068;8.156;2023-02-01T15:27:17;8.30;99.90
10263;DHT22;5177;50.068;8.156;2023-02-01T15:29:44;8.20;99.90
10263;DHT22;5177;50.068;8.156;2023-02-01T15:34:57;8.30;99.90
10263;DHT22;5177;50.068;8.156;2023-02-01T15:37:23;8.20;99.90
10263;DHT22;5177;50.068;8.156;2023-02-01T15:42:53;8.20;99.90
10263;DHT22;5177;50.068;8.156;2023-02-01T15:45:20;8.20;99.90
10263;DHT22;5177;50.068;8.156;2023-02-01T15:47:49;8.20;99.90
10263;DHT22;5177;50.068;8.156;2023-02-01T15:50:16;8.20;99.90
10263;DHT22;5177;50.068;8.156;2023-02-01T15:52:45;8.10;99.90
10263;DHT22;5177;50.068;8.156;2023-02-01T15:55:45;8.30;99.90
10263;DHT22;5177;50.068;8.156;2023-02-01T15:58:14;8.30;99.90
10263;DHT22;5177;50.068;8.156;2023-02-01T16:00:49;8.20;99.90
10263;DHT22;5177;50.068;8.156;2023-02-01T16:05:54;8.30;99.90
10263;DHT22;5177;50.068;8.156;2023-02-01T16:08:21;8.30;99.90
10263;DHT22;5177;50.068;8.156;2023-02-01T16:10:48;8.30;99.90
10263;DHT22;5177;50.068;8.156;2023-02-01T16:13:14;8.30;99.90
10263;DHT22;5177;50.068;8.156;2023-02-01T16:15:40;8.30;99.90
10263;DHT22;5177;50.068;8.156;2023-02-01T16:18:05;8.30;99.90
10263;DHT22;5177;50.068;8.156;2023-02-01T16:20:33;8.30;99.90
10263;DHT22;5177;50.068;8.156;2023-02-01T16:23:00;8.30;99.90
10263;DHT22;5177;50.068;8.156;2023-02-01T16:25:26;8.30;99.90
10263;DHT22;5177;50.068;8.156;2023-02-01T16:27:51;8.30;99.90
10263;DHT22;5177;50.068;8.156;2023-02-01T16:30:17;8.30;99.90
10263;DHT22;5177;50.068;8.156;2023-02-01T16:32:54;8.30;99.90
10263;DHT22;5177;50.068;8.156;2023-02-01T16:35:30;8.30;99.90
10263;DHT22;5177;50.068;8.156;2023-02-01T16:38:00;8.30;99.90
10263;DHT22;5177;50.068;8.156;2023-02-01T16:40:26;8.20;99.90
10263;DHT22;5177;50.068;8.156;2023-02-01T16:42:53;8.30;99.90
10263;DHT22;5177;50.068;8.156;2023-02-01T16:45:20;8.20;99.90
10263;DHT22;5177;50.068;8.156;2023-02-01T16:47:48;8.20;99.90
10263;DHT22;5177;50.068;8.156;2023-02-01T16:50:17;8.10;99.90
10263;DHT22;5177;50.068;8.156;2023-02-01T16:52:43;8.10;99.90
10263;DHT22;5177;50.068;8.156;2023-02-01T16:55:12;8.10;99.90
10263;DHT22;5177;50.068;8.156;2023-02-01T16:57:38;8.10;99.90
10263;DHT22;5177;50.068;8.156;2023-02-01T17:00:04;8.00;99.90
10263;DHT22;5177;50.068;8.156;2023-02-01T17:02:30;8.00;99.90
10263;DHT22;5177;50.068;8.156;2023-02-01T17:04:56;8.00;99.90
10263;DHT22;5177;50.068;8.156;2023-02-01T17:07:21;8.00;99.90
10263;DHT22;5177;50.068;8.156;2023-02-01T17:09:47;8.00;99.90
10263;DHT22;5177;50.068;8.156;2023-02-01T17:12:25;8.00;99.90
10263;DHT22;5177;50.068;8.156;2023-02-01T17:14:52;8.00;99.90
10263;DHT22;5177;50.068;8.156;2023-02-01T17:17:21;7.90;99.90
10263;DHT22;5177;50.068;8.156;2023-02-01T17:19:47;7.90;99.90
10263;DHT22;5177;50.068;8.156;2023-02-01T17:22:15;7.90;99.90
10263;DHT22;5177;50.068;8.156;2023-02-01T17:24:41;7.90;99.90
10263;DHT22;5177;50.068;8.156;2023-02-01T17:27:06;7.80;99.90
10263;DHT22;5177;50.068;8.156;2023-02-01T17:29:32;7.80;99.90
10263;DHT22;5177;50.068;8.156;2023-02-01T17:31:58;7.80;99.90
10263;DHT22;5177;50.068;8.156;2023-02-01T17:34:24;7.80;99.90
10263;DHT22;5177;50.068;8.156;2023-02-01T17:36:50;7.80;99.90
10263;DHT22;5177;50.068;8.156;2023-02-01T17:39:16;7.80;99.90
10263;DHT22;5177;50.068;8.156;2023-02-01T17:42:00;7.80;99.90
10263;DHT22;5177;50.068;8.156;2023-02-01T17:44:26;7.80;99.90
10263;DHT22;5177;50.068;8.156;2023-02-01T17:46:51;7.80;99.90
10263;DHT22;5177;50.068;8.156;2023-02-01T17:49:17;7.70;99.90
10263;DHT22;5177;50.068;8.156;2023-02-01T17:51:42;7.70;99.90
10263;DHT22;5177;50.068;8.156;2023-02-01T17:54:10;7.70;99.90
10263;DHT22;5177;50.068;8.156;2023-02-01T17:56:36;7.60;99.90
10263;DHT22;5177;50.068;8.156;2023-02-01T17:59:02;7.60;99.90
10263;DHT22;5177;50.068;8.156;2023-02-01T18:01:27;7.60;99.90
10263;DHT22;5177;50.068;8.156;2023-02-01T18:03:53;7.50;99.90
10263;DHT22;5177;50.068;8.156;2023-02-01T18:06:19;7.50;99.90
10263;DHT22;5177;50.068;8.156;2023-02-01T18:08:45;7.50;99.90
10263;DHT22;5177;50.068;8.156;2023-02-01T18:11:13;7.50;99.90
10263;DHT22;5177;50.068;8.156;2023-02-01T18:13:39;7.50;99.90
10263;DHT22;5177;50.068;8.156;2023-02-01T18:16:04;7.50;99.90